Time;durP1;ratioP1;P1;durP2;ratioP2;P2;SDS_P1;SDS_P2;PMS_P1;PMS_P2;Temp;Humidity;BMP_temperature;BMP_pressure;BME280_temperature;BME280_humidity;BME280_pressure;Samples;Min_cycle;Max_cycle;Signal;HPM_P1;HPM_P2
2023/07/21 00:02:11;;;;;;;15.20;13.87;;;14.70;5.60;;;;;;2608383;54;20399;-70
2023/07/21 00:07:59;;;;;;;17.00;15.60;;;14.60;55.40;;;;;;2608740;39;20833;-70
2023/07/21 00:13:47;;;;;;;16.57;15.13;;;14.50;89.80;;;;;;2609046;54;20130;-69
2023/07/21 00:19:36;;;;;;;16.17;14.83;;;14.40;99.90;;;;;;2608826;54;20148;-70
2023/07/21 00:25:24;;;;;;;16.17;14.87;;;14.30;99.90;;;;;;2610255;54;20526;-70
2023/07/21 00:31:13;;;;;;;17.07;15.00;;;14.40;99.90;;;;;;2612700;54;20166;-70
2023/07/21 00:37:01;;;;;;;15.80;14.40;;;14.20;99.90;;;;;;2610504;54;20417;-69
2023/07/21 00:42:49;;;;;;;14.10;12.70;;;14.20;99.90;;;;;;2608937;54;20130;-70
2023/07/21 00:48:37;;;;;;;16.67;15.03;;;14.10;99.90;;;;;;2611081;39;20655;-71
2023/07/21 00:54:25;;;;;;;17.63;14.80;;;14.10;99.90;;;;;;2609658;54;20399;-70
2023/07/21 00:57:43;;;;;;;18.27;16.27;;;14.10;99.90;;;;;;2609507;54;20503;-69
2023/07/21 01:00:12;;;;;;;19.20;17.40;;;14.10;99.90;;;;;;2607476;54;20531;-70
2023/07/21 01:06:00;;;;;;;18.47;16.70;;;14.00;99.90;;;;;;2608513;54;20387;-76
2023/07/21 01:11:48;;;;;;;16.20;14.77;;;14.00;99.90;;;;;;2608057;54;20395;-74
2023/07/21 01:17:37;;;;;;;18.63;16.87;;;13.90;99.90;;;;;;2609806;54;20396;-74
2023/07/21 01:29:52;;;;;;;19.03;17.17;;;13.90;99.90;;;;;;2606843;54;20395;-74
2023/07/21 01:35:41;;;;;;;19.70;17.60;;;13.90;99.90;;;;;;2610194;54;21009;-74
2023/07/21 01:41:29;;;;;;;30.10;18.93;;;13.90;99.90;;;;;;2612252;54;20387;-75
2023/07/21 01:47:17;;;;;;;18.60;16.80;;;14.00;99.90;;;;;;2612418;54;20403;-74
2023/07/21 01:53:12;;;;;;;19.87;17.77;;;14.00;99.90;;;;;;2612629;54;20162;-70
2023/07/21 02:02:21;;;;;;;18.47;16.77;;;14.00;99.90;;;;;;2609619;31;20954;-69
2023/07/21 02:08:09;;;;;;;18.33;16.50;;;13.90;99.90;;;;;;2607080;54;20221;-71
2023/07/21 02:13:58;;;;;;;18.53;16.93;;;13.80;99.90;;;;;;2607322;54;20403;-70
2023/07/21 02:19:45;;;;;;;21.63;18.50;;;13.80;99.90;;;;;;2609262;54;20395;-71
2023/07/21 02:25:32;;;;;;;18.57;16.77;;;13.90;99.90;;;;;;2608353;54;20193;-70
2023/07/21 02:31:21;;;;;;;18.90;17.00;;;13.90;99.90;;;;;;2610285;54;20158;-70
2023/07/21 02:37:09;;;;;;;20.13;18.23;;;14.00;99.90;;;;;;2610423;54;20399;-71
2023/07/21 02:42:57;;;;;;;32.30;19.73;;;13.90;99.90;;;;;;2610908;39;20515;-70
2023/07/21 02:48:44;;;;;;;22.80;20.33;;;13.90;99.90;;;;;;2610293;39;21618;-70
2023/07/21 02:54:32;;;;;;;22.63;20.40;;;13.70;99.90;;;;;;2610831;54;20138;-69
2023/07/21 02:57:44;;;;;;;24.30;21.83;;;13.70;99.90;;;;;;2610441;39;20804;-71
2023/07/21 03:00:13;;;;;;;24.47;21.97;;;13.70;99.90;;;;;;2611936;54;20572;-71
2023/07/21 03:06:01;;;;;;;25.63;21.47;;;13.60;99.90;;;;;;2609188;54;20410;-71
2023/07/21 03:11:49;;;;;;;26.47;21.80;;;13.60;99.90;;;;;;2613058;54;20142;-71
2023/07/21 03:17:37;;;;;;;27.23;20.40;;;13.60;99.90;;;;;;2609712;54;20184;-71
2023/07/21 03:23:25;;;;;;;28.00;20.23;;;13.40;99.90;;;;;;2609855;54;20276;-71
2023/07/21 03:29:13;;;;;;;25.80;21.60;;;13.40;99.90;;;;;;2609380;54;22575;-71
2023/07/21 03:35:04;;;;;;;28.57;20.80;;;13.40;99.90;;;;;;2609136;54;20138;-70
2023/07/21 03:47:24;;;;;;;25.90;20.20;;;13.50;99.90;;;;;;2612896;54;20367;-70
2023/07/21 03:53:12;;;;;;;23.87;20.90;;;13.40;99.90;;;;;;2612974;54;20134;-69
2023/07/21 04:02:22;;;;;;;28.63;21.50;;;13.40;99.90;;;;;;2611197;54;20457;-70
2023/07/21 04:08:10;;;;;;;28.57;21.70;;;13.40;99.90;;;;;;2610222;54;20134;-70
2023/07/21 04:13:59;;;;;;;26.27;21.17;;;13.40;99.90;;;;;;2611155;54;20431;-69
2023/07/21 04:17:02;;;;;;;27.33;23.03;;;13.50;99.90;;;;;;2609458;54;20404;-71
2023/07/21 04:19:28;;;;;;;31.40;22.50;;;13.40;99.90;;;;;;2610413;46;20669;-70
2023/07/21 04:25:18;;;;;;;31.97;24.60;;;13.50;99.90;;;;;;2609409;54;20163;-70
2023/07/21 04:31:06;;;;;;;26.00;22.30;;;13.60;99.90;;;;;;2610292;54;20395;-70
2023/07/21 04:36:53;;;;;;;33.23;25.87;;;13.70;99.90;;;;;;2610449;39;20574;-73
2023/07/21 04:42:43;;;;;;;34.60;26.23;;;13.80;99.90;;;;;;2611778;54;20138;-71
2023/07/21 04:48:31;;;;;;;43.77;27.90;;;14.00;99.90;;;;;;2609815;54;20386;-70
2023/07/21 04:54:18;;;;;;;43.93;31.67;;;14.20;99.90;;;;;;2609497;54;20123;-70
2023/07/21 05:00:11;;;;;;;46.73;31.17;;;14.40;99.90;;;;;;2609073;54;20219;-70
2023/07/21 05:05:59;;;;;;;40.00;30.33;;;14.60;85.00;;;;;;2608494;54;20417;-71
2023/07/21 05:11:47;;;;;;;41.77;31.93;;;14.90;27.90;;;;;;2609490;54;20130;-70
2023/07/21 05:17:35;;;;;;;38.17;28.67;;;15.00;13.30;;;;;;2610220;54;20134;-70
2023/07/21 05:23:23;;;;;;;38.00;28.43;;;15.20;1.00;;;;;;2609702;54;22072;-70
2023/07/21 05:29:11;;;;;;;47.07;31.80;;;15.50;1.00;;;;;;2610255;39;20655;-71
2023/07/21 05:34:58;;;;;;;36.97;29.67;;;15.90;1.00;;;;;;2610283;54;20141;-71
2023/07/21 05:47:21;;;;;;;29.73;26.70;;;16.70;1.00;;;;;;2614809;39;20812;-70
2023/07/21 05:53:08;;;;;;;29.30;26.17;;;17.30;1.00;;;;;;2614222;54;20165;-70
2023/07/21 06:02:18;;;;;;;24.07;21.73;;;17.30;1.00;;;;;;2609277;54;20442;-70
2023/07/21 06:08:06;;;;;;;22.67;20.40;;;17.40;1.00;;;;;;2609351;39;20867;-70
2023/07/21 06:13:54;;;;;;;19.67;17.87;;;18.00;1.00;;;;;;2613380;54;20134;-70
2023/07/21 06:19:42;;;;;;;19.57;17.93;;;17.80;1.00;;;;;;2612474;54;20158;-70
2023/07/21 06:25:30;;;;;;;19.10;17.20;;;18.40;1.00;;;;;;2611044;39;20632;-70
2023/07/21 06:31:18;;;;;;;19.30;17.70;;;18.50;1.00;;;;;;2611540;54;20156;-70
2023/07/21 06:37:06;;;;;;;18.70;17.10;;;18.80;1.00;;;;;;2613802;54;20398;-68
2023/07/21 06:42:53;;;;;;;18.07;16.60;;;18.40;1.00;;;;;;2612526;39;20659;-67
2023/07/21 06:48:41;;;;;;;22.70;18.07;;;18.30;1.00;;;;;;2611007;54;20154;-67
2023/07/21 06:54:30;;;;;;;17.03;15.63;;;17.90;1.00;;;;;;2609801;54;20937;-68
2023/07/21 07:00:19;;;;;;;18.87;16.93;;;17.90;1.00;;;;;;2611807;54;20431;-68
2023/07/21 07:09:31;;;;;;;17.03;15.53;;;19.70;1.00;;;;;;2609177;54;20511;-65
2023/07/21 07:15:21;;;;;;;18.87;17.20;;;19.80;1.00;;;;;;2611131;54;20371;-67
2023/07/21 07:21:09;;;;;;;19.13;17.53;;;19.20;1.00;;;;;;2610715;54;20402;-68
2023/07/21 07:26:57;;;;;;;18.53;17.13;;;19.60;1.00;;;;;;2612683;54;20247;-68
2023/07/21 07:32:45;;;;;;;19.23;17.53;;;20.20;1.00;;;;;;2613280;54;20156;-68
2023/07/21 07:38:32;;;;;;;19.20;17.50;;;20.70;1.00;;;;;;2612090;54;20180;-68
2023/07/21 07:44:20;;;;;;;18.90;17.50;;;20.70;1.00;;;;;;2612390;54;20241;-69
2023/07/21 07:50:10;;;;;;;17.73;16.43;;;21.30;1.00;;;;;;2611675;54;20264;-67
2023/07/21 07:55:58;;;;;;;16.97;15.47;;;21.20;1.00;;;;;;2613002;54;20387;-68
2023/07/21 08:01:45;;;;;;;15.53;14.40;;;22.90;1.00;;;;;;2610184;54;20383;-67
2023/07/21 08:05:01;;;;;;;19.37;16.13;;;22.50;1.00;;;;;;2612118;54;20424;-68
2023/07/21 08:07:27;;;;;;;18.00;16.57;;;22.20;1.00;;;;;;2613608;54;20154;-67
2023/07/21 08:13:15;;;;;;;18.67;16.73;;;21.50;1.00;;;;;;2613532;54;20188;-66
2023/07/21 08:19:03;;;;;;;17.10;15.67;;;21.30;1.00;;;;;;2612207;54;21010;-67
2023/07/21 08:24:51;;;;;;;16.73;15.33;;;20.10;1.00;;;;;;2613196;46;20142;-68
2023/07/21 08:30:38;;;;;;;15.57;14.37;;;20.60;1.00;;;;;;2611904;54;20122;-68
2023/07/21 08:36:26;;;;;;;14.00;13.10;;;21.30;1.00;;;;;;2613723;54;20162;-68
2023/07/21 08:42:14;;;;;;;14.63;13.53;;;21.80;1.00;;;;;;2610869;54;20142;-68
2023/07/21 08:48:06;;;;;;;15.83;14.93;;;20.80;1.00;;;;;;2612379;54;20390;-68
2023/07/21 08:53:57;;;;;;;16.50;15.30;;;21.70;1.00;;;;;;2614675;39;21082;-67
2023/07/21 08:59:45;;;;;;;14.63;13.53;;;22.30;1.00;;;;;;2612687;54;20391;-68
2023/07/21 09:09:32;;;;;;;13.50;12.70;;;21.80;1.00;;;;;;2610882;54;20417;-69
2023/07/21 09:15:20;;;;;;;14.57;13.43;;;22.10;1.00;;;;;;2611696;54;20902;-68
2023/07/21 09:21:23;;;;;;;11.80;11.10;;;23.10;1.00;;;;;;2612401;54;20138;-68
2023/07/21 09:27:15;;;;;;;13.93;13.03;;;23.40;1.00;;;;;;2613538;39;20746;-68
2023/07/21 09:33:03;;;;;;;13.00;12.20;;;22.50;1.00;;;;;;2612198;39;20496;-68
2023/07/21 09:38:50;;;;;;;15.70;14.33;;;22.30;1.00;;;;;;2614635;54;20410;-68
2023/07/21 09:44:38;;;;;;;13.30;12.60;;;23.20;1.00;;;;;;2614308;54;20440;-68
2023/07/21 09:50:26;;;;;;;13.60;12.90;;;21.40;1.00;;;;;;2609629;54;20148;-67
2023/07/21 09:56:16;;;;;;;14.23;13.43;;;22.00;1.00;;;;;;2611660;54;20170;-68
2023/07/21 10:02:07;;;;;;;15.23;14.23;;;22.10;1.00;;;;;;2612122;54;20395;-70
2023/07/21 10:05:04;;;;;;;16.07;14.97;;;22.40;1.00;;;;;;2612651;54;20412;-69
2023/07/21 10:07:33;;;;;;;14.67;13.77;;;23.00;1.00;;;;;;2613543;54;20419;-69
2023/07/21 10:13:20;;;;;;;14.80;14.00;;;23.60;1.00;;;;;;2611697;39;20802;-68
2023/07/21 10:19:11;;;;;;;14.80;14.00;;;22.60;1.00;;;;;;2611391;54;20149;-69
2023/07/21 10:25:00;;;;;;;17.90;16.67;;;22.40;1.00;;;;;;2611734;54;20395;-69
2023/07/21 10:30:49;;;;;;;17.00;16.00;;;24.40;1.00;;;;;;2611683;54;20399;-68
2023/07/21 10:36:39;;;;;;;16.83;15.93;;;23.80;1.00;;;;;;2613009;54;20419;-68
2023/07/21 10:42:27;;;;;;;16.50;15.60;;;24.90;1.00;;;;;;2610669;54;20460;-69
2023/07/21 10:48:15;;;;;;;16.57;15.20;;;24.60;1.00;;;;;;2612138;46;20169;-69
2023/07/21 10:54:03;;;;;;;16.20;15.17;;;23.70;1.00;;;;;;2611312;54;22603;-69
2023/07/21 10:59:54;;;;;;;18.63;17.67;;;23.30;1.00;;;;;;2612938;54;20421;-69
2023/07/21 11:09:33;;;;;;;16.53;15.57;;;24.40;1.00;;;;;;2611217;54;20560;-70
2023/07/21 11:15:21;;;;;;;16.10;15.10;;;24.10;1.00;;;;;;2611822;54;20407;-68
2023/07/21 11:21:09;;;;;;;13.23;12.50;;;25.00;1.00;;;;;;2611249;54;20122;-69
2023/07/21 11:33:41;;;;;;;14.27;13.67;;;23.50;1.00;;;;;;2612532;39;20623;-68
2023/07/21 11:39:30;;;;;;;16.00;14.90;;;23.90;1.00;;;;;;2611013;54;20376;-69
2023/07/21 11:45:35;;;;;;;14.70;13.97;;;23.60;1.00;;;;;;2612157;54;20425;-69
2023/07/21 11:51:23;;;;;;;13.73;13.07;;;23.20;1.00;;;;;;2612989;54;20524;-69
2023/07/21 11:57:11;;;;;;;13.43;12.83;;;25.30;1.00;;;;;;2613096;54;20413;-70
2023/07/21 12:02:59;;;;;;;13.63;13.03;;;25.00;1.00;;;;;;2613529;54;20971;-69
2023/07/21 12:08:47;;;;;;;13.63;12.80;;;25.20;1.00;;;;;;2613862;54;20405;-68
2023/07/21 12:14:35;;;;;;;14.07;13.40;;;24.10;1.00;;;;;;2612395;54;20127;-69
2023/07/21 12:20:23;;;;;;;14.33;13.70;;;22.40;1.00;;;;;;2613475;54;20123;-68
2023/07/21 12:26:10;;;;;;;13.13;12.53;;;22.20;1.00;;;;;;2612782;39;20458;-70
2023/07/21 12:31:58;;;;;;;14.10;13.50;;;22.30;1.00;;;;;;2613297;54;20118;-68
2023/07/21 12:37:46;;;;;;;15.07;14.37;;;22.40;1.00;;;;;;2614953;54;20183;-70
2023/07/21 12:43:34;;;;;;;13.60;12.90;;;23.10;1.00;;;;;;2613550;39;20530;-70
2023/07/21 12:49:22;;;;;;;13.50;12.77;;;22.90;1.00;;;;;;2613785;54;20422;-68
2023/07/21 12:55:10;;;;;;;13.93;13.23;;;22.50;1.00;;;;;;2612430;54;20498;-70
2023/07/21 13:00:58;;;;;;;15.50;14.60;;;22.30;1.00;;;;;;2614686;46;20162;-69
2023/07/21 13:10:08;;;;;;;13.67;13.07;;;22.30;1.00;;;;;;2613404;31;21059;-69
2023/07/21 13:15:56;;;;;;;13.40;12.70;;;21.70;1.00;;;;;;2613637;54;20449;-71
2023/07/21 13:21:44;;;;;;;13.60;13.00;;;21.60;1.00;;;;;;2612568;54;20157;-70
2023/07/21 13:27:31;;;;;;;15.00;14.10;;;21.50;1.00;;;;;;2613564;54;20122;-69
2023/07/21 13:33:20;;;;;;;14.20;13.07;;;20.70;1.00;;;;;;2612853;54;20150;-70
2023/07/21 13:39:08;;;;;;;9.90;9.30;;;20.10;1.00;;;;;;2613794;39;20767;-66
2023/07/21 13:44:55;;;;;;;11.30;10.20;;;17.80;1.00;;;;;;2613042;54;20151;-67
2023/07/21 13:50:43;;;;;;;10.77;9.80;;;17.40;1.00;;;;;;2613039;54;20140;-67
2023/07/21 13:56:31;;;;;;;16.10;14.60;;;17.10;1.00;;;;;;2613066;39;20546;-66
2023/07/21 14:02:19;;;;;;;14.70;13.30;;;17.00;1.00;;;;;;2610510;54;20930;-67
2023/07/21 14:05:33;;;;;;;13.97;12.87;;;16.90;1.00;;;;;;2611079;54;20490;-67
2023/07/21 14:07:58;;;;;;;13.90;12.70;;;17.00;1.00;;;;;;2613310;54;20678;-66
2023/07/21 14:13:46;;;;;;;14.57;13.00;;;17.00;1.00;;;;;;2613923;54;20837;-67
2023/07/21 14:19:34;;;;;;;14.33;13.23;;;16.90;1.00;;;;;;2613604;46;20185;-68
2023/07/21 14:25:22;;;;;;;14.93;13.50;;;16.90;1.00;;;;;;2613060;54;20562;-67
2023/07/21 14:31:10;;;;;;;14.77;13.30;;;16.90;1.00;;;;;;2613221;54;20788;-68
2023/07/21 14:36:58;;;;;;;13.10;12.10;;;17.30;1.00;;;;;;2612332;54;20535;-67
2023/07/21 14:42:45;;;;;;;13.27;12.17;;;17.40;1.00;;;;;;2610027;54;20144;-68
2023/07/21 14:48:34;;;;;;;12.43;11.43;;;17.60;1.00;;;;;;2613163;54;20276;-67
2023/07/21 14:54:23;;;;;;;12.37;11.17;;;17.90;1.00;;;;;;2614592;54;20419;-66
2023/07/21 15:00:20;;;;;;;12.00;11.00;;;18.10;1.00;;;;;;2613187;54;20968;-67
2023/07/21 15:19:48;;;;;;;12.30;11.30;;;18.50;1.00;;;;;;2611346;46;20419;-67
2023/07/21 15:25:36;;;;;;;11.47;10.27;;;19.00;1.00;;;;;;2611664;54;20123;-67
2023/07/21 15:31:23;;;;;;;11.57;10.70;;;19.50;1.00;;;;;;2611251;39;22248;-67
2023/07/21 15:37:11;;;;;;;13.03;12.03;;;20.80;1.00;;;;;;2611298;54;20150;-66
2023/07/21 15:42:58;;;;;;;13.57;12.57;;;20.10;1.00;;;;;;2610798;54;20162;-67
2023/07/21 15:48:45;;;;;;;13.80;12.37;;;20.50;1.00;;;;;;2609832;54;20155;-67
2023/07/21 15:54:33;;;;;;;12.90;12.00;;;19.50;1.00;;;;;;2612243;54;20821;-67
2023/07/21 16:00:21;;;;;;;12.27;11.27;;;19.60;1.00;;;;;;2609981;54;20138;-67
2023/07/21 16:10:05;;;;;;;11.63;10.90;;;19.40;1.00;;;;;;2614223;54;20980;-67
2023/07/21 16:13:08;;;;;;;11.63;10.83;;;19.30;1.00;;;;;;2611102;54;20424;-67
2023/07/21 16:15:34;;;;;;;12.77;11.60;;;19.40;1.00;;;;;;2609113;54;20534;-68
2023/07/21 16:21:22;;;;;;;13.00;12.10;;;19.20;1.00;;;;;;2610285;54;20193;-68
2023/07/21 16:27:09;;;;;;;11.80;11.00;;;19.00;1.00;;;;;;2610556;39;20801;-67
2023/07/21 16:32:57;;;;;;;11.10;10.40;;;18.80;1.00;;;;;;2610424;54;20153;-67
2023/07/21 16:38:46;;;;;;;11.07;10.27;;;18.90;1.00;;;;;;2614630;54;20122;-68
2023/07/21 16:44:34;;;;;;;12.80;11.90;;;18.80;1.00;;;;;;2610227;46;20558;-68
2023/07/21 16:50:21;;;;;;;11.30;10.50;;;18.50;1.00;;;;;;2610763;31;20854;-68
2023/07/21 16:56:10;;;;;;;12.23;11.07;;;18.40;1.00;;;;;;2610283;54;20166;-68
2023/07/21 17:01:57;;;;;;;12.23;11.20;;;18.40;1.00;;;;;;2610566;54;20422;-68
2023/07/21 17:07:45;;;;;;;11.07;10.27;;;19.00;1.00;;;;;;2610415;54;20177;-69
2023/07/21 17:13:33;;;;;;;12.43;11.53;;;19.50;1.00;;;;;;2611099;54;20208;-68
2023/07/21 17:19:21;;;;;;;11.53;10.63;;;18.90;1.00;;;;;;2610857;54;20171;-69
2023/07/21 17:25:09;;;;;;;12.40;11.20;;;18.50;1.00;;;;;;2611012;54;20388;-70
2023/07/21 17:30:57;;;;;;;11.80;10.90;;;18.50;1.00;;;;;;2611056;54;20434;-70
2023/07/21 17:36:44;;;;;;;10.80;10.20;;;18.60;1.00;;;;;;2614347;54;20160;-68
2023/07/21 17:42:32;;;;;;;13.40;12.27;;;18.40;1.00;;;;;;2611080;54;20152;-69
2023/07/21 17:48:21;;;;;;;11.23;10.33;;;18.60;1.00;;;;;;2610798;54;20138;-69
2023/07/21 17:54:09;;;;;;;11.40;10.47;;;18.80;1.00;;;;;;2611035;54;20387;-68
2023/07/21 17:59:57;;;;;;;10.53;9.83;;;18.80;1.00;;;;;;2610180;54;20156;-68
2023/07/21 18:10:00;;;;;;;11.27;10.47;;;18.50;1.00;;;;;;2612576;54;20520;-69
2023/07/21 18:15:48;;;;;;;11.70;10.80;;;18.40;1.00;;;;;;2610736;54;20752;-72
2023/07/21 18:21:36;;;;;;;10.53;9.80;;;18.60;1.00;;;;;;2612019;54;20180;-70
2023/07/21 18:27:24;;;;;;;11.63;10.60;;;18.40;1.00;;;;;;2614768;54;20162;-70
2023/07/21 18:33:12;;;;;;;10.73;9.63;;;18.20;1.00;;;;;;2612754;54;20147;-69
2023/07/21 18:38:59;;;;;;;10.37;9.40;;;18.10;1.00;;;;;;2614424;54;20395;-69
2023/07/21 18:44:48;;;;;;;12.40;11.30;;;18.00;1.00;;;;;;2611444;54;20122;-69
2023/07/21 18:50:35;;;;;;;11.97;10.97;;;17.90;1.00;;;;;;2610050;54;20503;-70
2023/07/21 18:56:23;;;;;;;11.63;10.73;;;17.80;1.00;;;;;;2610552;54;20140;-69
2023/07/21 19:02:11;;;;;;;10.60;9.90;;;17.80;1.00;;;;;;2609016;54;20134;-68
2023/07/21 19:05:33;;;;;;;11.83;10.80;;;17.80;1.00;;;;;;2609051;50;20408;-71
2023/07/21 19:07:59;;;;;;;11.57;10.63;;;17.80;1.00;;;;;;2610110;54;20274;-69
2023/07/21 19:13:48;;;;;;;11.53;10.53;;;18.00;1.00;;;;;;2609434;54;20160;-69
2023/07/21 19:19:35;;;;;;;12.93;10.07;;;17.70;1.00;;;;;;2612267;54;20451;-68
2023/07/21 19:25:24;;;;;;;13.27;11.97;;;17.70;1.00;;;;;;2610467;31;20617;-70
2023/07/21 19:31:16;;;;;;;13.50;12.33;;;17.50;1.00;;;;;;2611326;54;20391;-69
2023/07/21 19:37:04;;;;;;;14.67;13.17;;;17.20;1.00;;;;;;2613178;54;20360;-70
2023/07/21 19:42:53;;;;;;;13.43;12.03;;;17.00;1.00;;;;;;2610039;54;20478;-69
2023/07/21 19:48:41;;;;;;;14.93;13.50;;;16.80;1.00;;;;;;2611004;54;20421;-70
2023/07/21 19:54:29;;;;;;;13.60;12.30;;;16.90;1.00;;;;;;2610884;54;20194;-69
2023/07/21 20:00:17;;;;;;;13.30;12.20;;;16.80;1.00;;;;;;2610870;54;20126;-70
2023/07/21 20:10:02;;;;;;;15.23;13.87;;;16.60;1.00;;;;;;2613965;54;20420;-70
2023/07/21 20:15:53;;;;;;;14.63;13.40;;;16.50;1.00;;;;;;2614058;54;20405;-69
2023/07/21 20:21:41;;;;;;;13.97;12.97;;;16.10;1.00;;;;;;2612406;39;20501;-68
2023/07/21 20:27:29;;;;;;;14.37;13.17;;;16.00;1.00;;;;;;2613213;54;20150;-69
2023/07/21 20:33:16;;;;;;;14.97;13.87;;;16.00;1.00;;;;;;2612098;54;20135;-68
2023/07/21 20:39:04;;;;;;;14.40;13.13;;;15.80;1.00;;;;;;2613169;54;20177;-69
2023/07/21 20:44:52;;;;;;;14.17;12.87;;;15.40;1.00;;;;;;2613463;54;20130;-69
2023/07/21 20:50:40;;;;;;;15.03;13.87;;;15.40;1.00;;;;;;2612552;54;20646;-70
2023/07/21 20:56:28;;;;;;;13.73;12.63;;;15.40;1.00;;;;;;2613078;54;20414;-69
2023/07/21 21:02:16;;;;;;;16.40;15.00;;;15.00;1.00;;;;;;2613330;54;20123;-69
2023/07/21 21:05:34;;;;;;;14.03;12.93;;;14.90;1.00;;;;;;2614738;54;20423;-70
2023/07/21 21:08:02;;;;;;;14.30;13.17;;;14.70;1.00;;;;;;2612778;47;20342;-69
2023/07/21 21:13:49;;;;;;;14.70;13.37;;;14.60;1.00;;;;;;2614981;54;20387;-69
2023/07/21 21:19:37;;;;;;;15.20;14.00;;;14.30;1.00;;;;;;2611477;54;20138;-69
2023/07/21 21:25:24;;;;;;;18.83;13.27;;;14.10;1.00;;;;;;2613817;54;20211;-68
2023/07/21 21:31:12;;;;;;;15.37;14.03;;;14.00;1.00;;;;;;2614130;54;20157;-69
2023/07/21 21:37:00;;;;;;;15.30;14.00;;;14.10;1.00;;;;;;2613909;54;20355;-70
2023/07/21 21:42:47;;;;;;;13.87;12.70;;;14.00;1.00;;;;;;2614332;54;20141;-70
2023/07/21 21:48:35;;;;;;;14.33;13.10;;;14.00;1.00;;;;;;2614160;39;20770;-70
2023/07/21 21:54:23;;;;;;;14.43;13.37;;;14.20;1.00;;;;;;2614888;54;20131;-69
2023/07/21 22:00:12;;;;;;;13.90;12.83;;;14.30;1.00;;;;;;2613272;39;20480;-70
2023/07/21 22:10:05;;;;;;;14.23;13.03;;;14.00;1.00;;;;;;2608621;54;20391;-69
2023/07/21 22:13:08;;;;;;;14.50;13.03;;;13.80;1.00;;;;;;2611980;39;20879;-69
2023/07/21 22:15:34;;;;;;;15.03;13.60;;;13.70;1.00;;;;;;2614148;39;20781;-69
2023/07/21 22:21:22;;;;;;;13.47;12.27;;;13.90;1.00;;;;;;2613976;54;20840;-69
2023/07/21 22:27:09;;;;;;;16.23;14.03;;;14.10;1.00;;;;;;2614130;39;20519;-70
2023/07/21 22:32:58;;;;;;;14.30;12.10;;;14.10;1.00;;;;;;2612649;54;20649;-69
2023/07/21 22:38:46;;;;;;;14.87;13.23;;;14.20;1.00;;;;;;2613847;39;21259;-70
2023/07/21 22:44:33;;;;;;;14.50;13.20;;;14.00;1.00;;;;;;2612767;54;20309;-70
2023/07/21 22:50:22;;;;;;;13.63;12.27;;;14.00;1.00;;;;;;2613230;54;20126;-69
2023/07/21 22:56:10;;;;;;;14.80;13.40;;;13.90;1.00;;;;;;2612518;54;20483;-70
2023/07/21 23:01:57;;;;;;;14.87;13.57;;;13.80;1.00;;;;;;2613157;54;20154;-70
2023/07/21 23:07:46;;;;;;;14.53;13.13;;;13.60;1.00;;;;;;2613279;54;20174;-70
2023/07/21 23:13:33;;;;;;;15.47;13.87;;;13.50;1.00;;;;;;2614083;54;20390;-70
2023/07/21 23:19:21;;;;;;;15.00;13.40;;;13.40;1.00;;;;;;2612850;54;20130;-70
2023/07/21 23:25:09;;;;;;;17.53;12.20;;;13.20;1.00;;;;;;2612923;54;20146;-70
2023/07/21 23:31:03;;;;;;;12.37;11.17;;;13.00;1.00;;;;;;2613925;54;20960;-70
2023/07/21 23:36:51;;;;;;;16.23;12.27;;;12.90;1.00;;;;;;2612401;54;20391;-70
2023/07/21 23:42:44;;;;;;;18.43;13.23;;;12.70;1.00;;;;;;2615389;31;20571;-71
2023/07/21 23:48:31;;;;;;;13.87;12.47;;;12.70;1.00;;;;;;2614107;54;20387;-71
2023/07/21 23:54:19;;;;;;;13.47;12.17;;;12.90;1.00;;;;;;2614950;39;20496;-70
